createdAt,value
2022-10-13T00:00:49.144Z,159.27
2022-10-13T00:03:18.172Z,149.07
2022-10-13T00:05:47.727Z,149.45
2022-10-13T00:08:16.554Z,150.30
2022-10-13T00:10:46.584Z,156.80
2022-10-13T00:13:13.938Z,155.52
2022-10-13T00:15:42.009Z,149.75
2022-10-13T00:18:09.061Z,145.93
2022-10-13T00:20:36.533Z,159.20
2022-10-13T00:23:03.133Z,151.50
2022-10-13T00:25:29.768Z,150.35
2022-10-13T00:27:56.390Z,146.65
2022-10-13T00:30:28.100Z,147.02
2022-10-13T00:32:54.700Z,157.77
2022-10-13T00:35:21.433Z,158.23
2022-10-13T00:37:48.060Z,154.18
2022-10-13T00:40:14.757Z,150.43
2022-10-13T00:42:41.926Z,147.63
2022-10-13T00:45:17.959Z,150.93
2022-10-13T00:47:48.306Z,146.25
2022-10-13T00:50:19.960Z,156.48
2022-10-13T00:52:53.034Z,154.32
2022-10-13T00:55:28.471Z,156.52
2022-10-13T00:57:56.174Z,149.75
2022-10-13T01:00:30.368Z,159.48
2022-10-13T01:02:57.412Z,148.02
2022-10-13T01:05:25.081Z,146.00
2022-10-13T01:07:56.871Z,149.00
2022-10-13T01:10:35.892Z,148.63
2022-10-13T01:13:14.479Z,154.63
2022-10-13T01:15:52.163Z,149.13
2022-10-13T01:18:40.596Z,147.98
2022-10-13T01:21:21.501Z,153.57
2022-10-13T01:24:14.647Z,154.35
2022-10-13T01:27:03.849Z,144.50
2022-10-13T01:30:06.490Z,143.52
2022-10-13T01:32:33.642Z,146.40
2022-10-13T01:35:12.022Z,144.43
2022-10-13T01:38:03.714Z,147.95
2022-10-13T01:40:38.561Z,146.52
2022-10-13T01:43:31.219Z,143.07
2022-10-13T01:46:07.512Z,151.85
2022-10-13T01:48:38.080Z,150.25
2022-10-13T01:51:09.576Z,142.52
2022-10-13T01:53:37.829Z,156.88
2022-10-13T01:56:04.729Z,147.65
2022-10-13T01:58:35.459Z,146.00
2022-10-13T02:01:17.468Z,142.75
2022-10-13T02:04:01.341Z,146.57
2022-10-13T02:06:36.653Z,145.05
2022-10-13T02:09:13.044Z,151.67
2022-10-13T02:11:47.885Z,152.52
2022-10-13T02:14:24.389Z,139.98
2022-10-13T02:16:53.788Z,155.80
2022-10-13T02:19:21.127Z,150.85
2022-10-13T02:21:48.645Z,153.77
2022-10-13T02:24:15.326Z,144.48
2022-10-13T02:26:43.665Z,145.85
2022-10-13T02:29:13.104Z,148.63
2022-10-13T02:31:40.405Z,143.80
2022-10-13T02:34:07.700Z,155.35
2022-10-13T02:36:34.761Z,145.70
2022-10-13T02:39:01.456Z,153.48
2022-10-13T02:41:28.154Z,143.02
2022-10-13T02:43:54.832Z,143.88
2022-10-13T02:46:25.106Z,150.85
2022-10-13T02:48:52.184Z,147.32
2022-10-13T02:51:18.830Z,143.93
2022-10-13T02:53:45.442Z,155.57
2022-10-13T02:56:12.497Z,147.20
2022-10-13T02:58:39.210Z,152.35
2022-10-13T03:01:10.958Z,151.30
2022-10-13T03:03:37.932Z,150.98
2022-10-13T03:06:05.479Z,146.15
2022-10-13T03:08:33.848Z,145.23
2022-10-13T03:11:00.620Z,150.48
2022-10-13T03:13:27.809Z,143.43
2022-10-13T03:16:00.377Z,141.95
2022-10-13T03:18:27.061Z,146.18
2022-10-13T03:21:02.840Z,155.32
2022-10-13T03:23:30.102Z,150.57
2022-10-13T03:25:56.783Z,146.13
2022-10-13T03:28:23.514Z,152.95
2022-10-13T03:30:50.973Z,150.88
2022-10-13T03:33:17.572Z,153.90
2022-10-13T03:35:44.380Z,145.52
2022-10-13T03:38:11.220Z,143.73
2022-10-13T03:40:38.908Z,138.45
2022-10-13T03:43:05.539Z,142.75
2022-10-13T03:45:32.181Z,146.05
2022-10-13T03:47:58.847Z,141.70
2022-10-13T03:50:26.269Z,137.02
2022-10-13T03:52:54.173Z,152.07
2022-10-13T03:55:20.858Z,151.30
2022-10-13T03:57:47.508Z,140.10
2022-10-13T04:00:15.153Z,143.20
2022-10-13T04:02:41.823Z,150.82
2022-10-13T04:05:08.849Z,145.00
2022-10-13T04:07:35.474Z,152.88
2022-10-13T04:10:11.278Z,143.82
2022-10-13T04:12:40.048Z,144.00
2022-10-13T04:15:07.364Z,146.43
2022-10-13T04:17:33.985Z,143.18
2022-10-13T04:20:00.668Z,139.38
2022-10-13T04:22:28.449Z,154.70
2022-10-13T04:24:55.078Z,140.80
2022-10-13T04:27:23.480Z,146.32
2022-10-13T04:29:50.106Z,142.88
2022-10-13T04:32:16.915Z,145.27
2022-10-13T04:34:43.818Z,145.10
2022-10-13T04:37:10.497Z,143.32
2022-10-13T04:39:37.097Z,152.50
2022-10-13T04:42:03.993Z,147.57
2022-10-13T04:44:31.145Z,144.50
2022-10-13T04:46:58.302Z,148.77
2022-10-13T04:49:25.585Z,143.50
2022-10-13T04:51:52.243Z,141.90
2022-10-13T04:54:18.938Z,147.55
2022-10-13T04:56:46.159Z,144.35
2022-10-13T04:59:13.003Z,152.02
2022-10-13T05:01:39.647Z,145.20
2022-10-13T05:04:10.982Z,151.27
2022-10-13T05:07:05.177Z,146.05
2022-10-13T05:09:28.093Z,146.27
2022-10-13T05:11:55.239Z,152.43
2022-10-13T05:14:23.020Z,151.98
2022-10-13T05:16:49.631Z,150.65
2022-10-13T05:19:16.383Z,142.02
2022-10-13T05:21:43.298Z,154.85
2022-10-13T05:24:13.579Z,143.88
2022-10-13T05:26:41.251Z,145.15
2022-10-13T05:29:08.671Z,146.70
2022-10-13T05:31:36.263Z,142.95
2022-10-13T05:34:03.182Z,152.57
2022-10-13T05:36:35.026Z,149.27
2022-10-13T05:39:05.401Z,147.98
2022-10-13T05:41:32.241Z,151.18
2022-10-13T05:44:01.950Z,138.82
2022-10-13T05:46:28.809Z,138.50
2022-10-13T05:48:55.592Z,148.52
2022-10-13T05:51:27.249Z,139.73
2022-10-13T05:54:04.072Z,143.55
2022-10-13T05:56:35.666Z,149.18
2022-10-13T05:59:06.784Z,144.95
2022-10-13T06:01:37.952Z,144.15
2022-10-13T06:04:08.713Z,151.57
2022-10-13T06:06:35.690Z,147.65
2022-10-13T06:09:02.389Z,146.27
2022-10-13T06:11:29.032Z,145.35
2022-10-13T06:13:55.727Z,153.15
2022-10-13T06:16:22.440Z,144.48
2022-10-13T06:18:49.153Z,148.82
2022-10-13T06:21:15.773Z,155.40
2022-10-13T06:23:42.383Z,143.70
2022-10-13T06:26:09.246Z,142.45
2022-10-13T06:28:36.997Z,159.57
2022-10-13T06:31:05.436Z,147.30
2022-10-13T06:33:33.544Z,155.63
2022-10-13T06:36:05.031Z,146.25
2022-10-13T06:38:32.713Z,152.95
2022-10-13T06:41:01.116Z,147.50
2022-10-13T06:43:35.744Z,158.90
2022-10-13T06:46:06.388Z,150.75
2022-10-13T06:48:33.087Z,145.38
2022-10-13T06:51:08.109Z,147.27
2022-10-13T06:53:35.323Z,142.95
2022-10-13T06:56:03.863Z,145.13
2022-10-13T06:58:30.903Z,149.25
2022-10-13T07:00:57.867Z,143.20
2022-10-13T07:03:25.334Z,149.73
2022-10-13T07:05:52.128Z,153.45
2022-10-13T07:08:19.332Z,159.05
2022-10-13T07:10:46.402Z,151.80
2022-10-13T07:13:13.034Z,160.18
2022-10-13T07:15:41.031Z,154.07
2022-10-13T07:18:08.270Z,151.52
2022-10-13T07:20:35.416Z,150.95
2022-10-13T07:23:02.704Z,154.68
2022-10-13T07:25:29.642Z,153.85
2022-10-13T07:27:58.019Z,152.52
2022-10-13T07:30:24.862Z,158.52
2022-10-13T07:32:51.897Z,158.93
2022-10-13T07:35:18.629Z,158.65
2022-10-13T07:37:45.610Z,155.55
2022-10-13T07:40:12.565Z,162.23
2022-10-13T07:42:39.201Z,156.60
2022-10-13T07:45:06.534Z,165.50
2022-10-13T07:47:33.201Z,166.23
2022-10-13T07:49:59.791Z,161.88
2022-10-13T07:52:26.695Z,162.23
2022-10-13T07:54:54.077Z,164.00
2022-10-13T07:57:20.818Z,159.60
2022-10-13T07:59:47.522Z,161.98
2022-10-13T08:02:15.631Z,159.27
2022-10-13T08:04:42.257Z,159.77
2022-10-13T08:07:09.408Z,159.45
2022-10-13T08:09:36.174Z,155.30
2022-10-13T08:12:03.096Z,161.27
2022-10-13T08:14:31.289Z,156.82
2022-10-13T08:16:58.002Z,164.07
2022-10-13T08:19:26.556Z,159.45
2022-10-13T08:21:58.849Z,160.00
2022-10-13T08:24:27.178Z,162.07
2022-10-13T08:26:54.086Z,171.48
2022-10-13T08:29:22.359Z,164.73
2022-10-13T08:34:25.757Z,168.95
2022-10-13T08:36:56.307Z,169.50
2022-10-13T08:39:24.317Z,170.10
2022-10-13T08:41:52.103Z,165.63
2022-10-13T08:47:27.623Z,165.25
2022-10-13T08:50:02.368Z,168.05
2022-10-13T08:52:44.897Z,175.90
2022-10-13T08:55:21.704Z,169.07
2022-10-13T08:57:48.590Z,173.10
2022-10-13T09:00:17.489Z,172.85
2022-10-13T09:02:50.318Z,167.23
2022-10-13T09:05:32.504Z,167.50
2022-10-13T09:08:11.393Z,167.63
2022-10-13T09:10:47.936Z,170.52
2022-10-13T09:13:18.856Z,170.55
2022-10-13T09:15:47.966Z,165.07
2022-10-13T09:18:16.637Z,168.35
2022-10-13T09:20:43.280Z,173.52
2022-10-13T09:23:23.126Z,172.63
2022-10-13T09:25:52.531Z,166.68
2022-10-13T09:28:30.991Z,176.63
2022-10-13T09:31:27.473Z,171.55
2022-10-13T09:34:03.562Z,169.70
2022-10-13T09:36:31.307Z,169.05
2022-10-13T09:39:08.198Z,166.30
2022-10-13T09:41:36.452Z,173.25
2022-10-13T09:44:14.088Z,164.70
2022-10-13T09:46:51.249Z,164.20
2022-10-13T09:49:40.348Z,171.25
2022-10-13T09:54:51.466Z,164.13
2022-10-13T09:57:21.760Z,169.57
2022-10-13T09:59:58.723Z,171.15
2022-10-13T10:02:29.245Z,170.18
2022-10-13T10:05:00.710Z,174.73
2022-10-13T10:07:30.059Z,166.80
2022-10-13T10:10:04.863Z,168.02
2022-10-13T10:12:36.535Z,169.20
2022-10-13T10:15:16.367Z,171.75
2022-10-13T10:18:00.478Z,166.07
2022-10-13T10:20:39.296Z,173.82
2022-10-13T10:23:24.342Z,176.23
2022-10-13T10:25:53.849Z,171.52
2022-10-13T10:28:32.524Z,165.85
2022-10-13T10:31:13.689Z,166.13
2022-10-13T10:34:06.739Z,172.68
2022-10-13T10:36:57.837Z,171.82
2022-10-13T10:39:40.400Z,166.15
2022-10-13T10:42:18.370Z,169.10
2022-10-13T10:44:49.140Z,170.18
2022-10-13T10:47:43.283Z,171.10
2022-10-13T10:50:15.366Z,173.05
2022-10-13T10:53:19.965Z,172.32
2022-10-13T10:56:09.261Z,168.88
2022-10-13T10:58:56.827Z,170.30
2022-10-13T11:01:44.287Z,176.02
2022-10-13T11:04:32.859Z,176.18
2022-10-13T11:06:59.659Z,172.00
2022-10-13T11:09:41.706Z,170.52
2022-10-13T11:12:21.092Z,177.00
2022-10-13T11:15:03.223Z,169.05
2022-10-13T11:17:31.734Z,173.75
2022-10-13T11:20:00.360Z,174.25
2022-10-13T11:22:28.944Z,175.27
2022-10-13T11:25:04.250Z,167.98
2022-10-13T11:27:40.245Z,168.57
2022-10-13T11:30:52.911Z,163.80
2022-10-13T11:33:36.629Z,167.73
2022-10-13T11:36:35.230Z,169.48
2022-10-13T11:39:16.561Z,172.88
2022-10-13T11:41:55.255Z,171.52
2022-10-13T11:44:41.040Z,174.90
2022-10-13T11:47:35.601Z,168.82
2022-10-13T11:50:09.997Z,172.10
2022-10-13T11:52:51.780Z,167.15
2022-10-13T11:55:34.346Z,170.43
2022-10-13T11:58:14.388Z,175.85
2022-10-13T12:00:53.717Z,170.15
2022-10-13T12:03:28.689Z,166.52
2022-10-13T12:06:00.713Z,170.55
2022-10-13T12:08:30.626Z,174.15
2022-10-13T12:10:59.997Z,168.95
2022-10-13T12:13:31.620Z,172.52
2022-10-13T12:16:06.181Z,167.65
2022-10-13T12:18:39.137Z,164.40
2022-10-13T12:21:21.277Z,170.00
2022-10-13T12:23:50.248Z,167.10
2022-10-13T12:26:23.017Z,168.98
2022-10-13T12:28:53.233Z,174.13
2022-10-13T12:31:40.424Z,174.80
2022-10-13T12:34:32.009Z,170.32
2022-10-13T12:37:05.518Z,171.25
2022-10-13T12:39:35.472Z,172.43
2022-10-13T12:42:03.972Z,176.40
2022-10-13T12:44:32.295Z,174.90
2022-10-13T12:47:02.080Z,175.57
2022-10-13T12:49:31.528Z,179.82
2022-10-13T12:52:06.065Z,175.18
2022-10-13T12:54:34.958Z,173.35
2022-10-13T12:57:15.193Z,179.20
2022-10-13T12:59:43.174Z,168.07
2022-10-13T13:02:27.842Z,175.43
2022-10-13T13:04:54.523Z,170.38
2022-10-13T13:07:36.920Z,168.65
2022-10-13T13:10:19.980Z,169.30
2022-10-13T13:12:49.136Z,170.15
2022-10-13T13:15:31.783Z,171.60
2022-10-13T13:18:27.027Z,175.70
2022-10-13T13:20:54.907Z,172.27
2022-10-13T13:23:23.396Z,175.07
2022-10-13T13:26:17.469Z,176.13
2022-10-13T13:28:50.030Z,174.02
2022-10-13T13:31:18.899Z,173.05
2022-10-13T13:33:46.542Z,176.63
2022-10-13T13:36:26.339Z,172.98
2022-10-13T13:38:54.041Z,178.05
2022-10-13T13:41:21.311Z,173.18
2022-10-13T13:43:48.706Z,171.48
2022-10-13T13:46:22.025Z,173.73
2022-10-13T13:48:49.077Z,169.13
2022-10-13T13:51:15.871Z,175.25
2022-10-13T13:53:44.166Z,176.13
2022-10-13T13:56:17.379Z,174.40
2022-10-13T13:58:44.774Z,175.05
2022-10-13T14:01:13.191Z,166.52
2022-10-13T14:03:40.558Z,171.48
2022-10-13T14:06:08.269Z,175.63
2022-10-13T14:08:42.176Z,168.25
2022-10-13T14:11:09.828Z,176.10
2022-10-13T14:13:36.496Z,174.68
2022-10-13T14:16:04.111Z,167.52
2022-10-13T14:18:31.291Z,170.57
2022-10-13T14:20:57.985Z,174.05
2022-10-13T14:23:24.689Z,173.80
2022-10-13T14:25:51.406Z,171.20
2022-10-13T14:28:23.007Z,169.02
2022-10-13T14:30:49.779Z,175.55
2022-10-13T14:33:19.457Z,173.90
2022-10-13T14:35:47.011Z,170.73
2022-10-13T14:38:16.184Z,172.45
2022-10-13T14:40:44.324Z,170.75
2022-10-13T14:43:11.108Z,170.80
2022-10-13T14:45:37.681Z,172.30
2022-10-13T14:48:05.828Z,176.43
2022-10-13T14:50:34.032Z,172.63
2022-10-13T14:53:00.812Z,169.10
2022-10-13T14:55:27.652Z,173.90
2022-10-13T14:57:54.438Z,169.63
2022-10-13T15:00:21.150Z,175.10
2022-10-13T15:02:47.809Z,170.57
2022-10-13T15:05:14.501Z,169.93
2022-10-13T15:07:41.226Z,178.77
2022-10-13T15:10:08.695Z,176.07
2022-10-13T15:12:36.332Z,173.32
2022-10-13T15:15:03.968Z,171.38
2022-10-13T15:17:31.144Z,176.45
2022-10-13T15:19:57.711Z,171.80
2022-10-13T15:22:24.583Z,171.63
2022-10-13T15:24:51.279Z,171.63
2022-10-13T15:27:17.977Z,167.60
2022-10-13T15:29:44.629Z,163.75
2022-10-13T15:32:17.931Z,176.25
2022-10-13T15:34:49.319Z,175.50
2022-10-13T15:37:15.991Z,174.32
2022-10-13T15:39:42.719Z,177.20
2022-10-13T15:42:11.375Z,168.80
2022-10-13T15:45:08.063Z,173.43
2022-10-13T15:47:25.029Z,176.85
2022-10-13T15:49:51.637Z,172.48
2022-10-13T15:52:18.714Z,174.68
2022-10-13T15:54:45.577Z,167.35
2022-10-13T15:57:12.185Z,174.23
2022-10-13T15:59:38.830Z,176.93
2022-10-13T16:02:05.477Z,171.43
2022-10-13T16:04:37.085Z,168.73
2022-10-13T16:07:04.218Z,171.45
2022-10-13T16:09:31.275Z,167.60
2022-10-13T16:11:57.887Z,174.50
2022-10-13T16:14:24.588Z,169.85
2022-10-13T16:16:51.232Z,171.35
2022-10-13T16:19:17.825Z,174.98
2022-10-13T16:21:46.752Z,177.65
2022-10-13T16:24:14.678Z,176.93
2022-10-13T16:26:41.267Z,174.43
2022-10-13T16:29:07.874Z,178.00
2022-10-13T16:31:35.364Z,177.90
2022-10-13T16:34:02.027Z,179.40
2022-10-13T16:36:28.676Z,172.00
2022-10-13T16:38:55.558Z,176.25
2022-10-13T16:41:23.710Z,174.70
2022-10-13T16:43:50.492Z,173.43
2022-10-13T16:46:19.609Z,173.77
2022-10-13T16:48:47.098Z,177.57
2022-10-13T16:51:16.441Z,170.45
2022-10-13T16:53:43.317Z,172.13
2022-10-13T16:56:10.217Z,173.93
2022-10-13T16:58:36.806Z,173.77
2022-10-13T17:01:09.161Z,177.75
2022-10-13T17:03:37.253Z,172.82
2022-10-13T17:06:05.022Z,175.68
2022-10-13T17:08:32.032Z,179.80
2022-10-13T17:11:00.885Z,172.32
2022-10-13T17:13:27.677Z,173.50
2022-10-13T17:15:56.551Z,176.57
2022-10-13T17:18:26.028Z,169.52
2022-10-13T17:20:57.057Z,166.02
2022-10-13T17:23:24.463Z,169.15
2022-10-13T17:25:52.402Z,172.40
2022-10-13T17:28:19.872Z,167.70
2022-10-13T17:31:00.208Z,171.25
2022-10-13T17:33:27.831Z,172.82
2022-10-13T17:36:00.265Z,170.10
2022-10-13T17:38:26.963Z,175.63
2022-10-13T17:40:57.365Z,178.40
2022-10-13T17:43:26.221Z,171.20
2022-10-13T17:45:53.433Z,170.60
2022-10-13T17:48:23.063Z,164.68
2022-10-13T17:50:49.940Z,166.30
2022-10-13T17:53:18.591Z,170.52
2022-10-13T17:55:45.240Z,167.75
2022-10-13T17:58:13.882Z,183.95
2022-10-13T18:01:07.932Z,183.75
2022-10-13T18:03:27.092Z,171.70
2022-10-13T18:05:53.708Z,170.73
2022-10-13T18:08:21.256Z,169.07
2022-10-13T18:11:07.015Z,169.10
2022-10-13T18:13:35.445Z,166.10
2022-10-13T18:16:07.607Z,174.68
2022-10-13T18:18:34.863Z,167.95
2022-10-13T18:21:04.625Z,166.77
2022-10-13T18:23:37.061Z,171.60
2022-10-13T18:26:09.748Z,174.38
2022-10-13T18:28:40.017Z,169.65
2022-10-13T18:31:12.342Z,167.80
2022-10-13T18:33:40.030Z,161.23
2022-10-13T18:36:25.488Z,166.77
2022-10-13T18:39:00.217Z,167.30
2022-10-13T18:41:26.929Z,163.38
2022-10-13T18:43:54.493Z,162.55
2022-10-13T18:46:22.995Z,172.27
2022-10-13T18:48:50.391Z,164.13
2022-10-13T18:51:18.890Z,166.75
2022-10-13T18:53:48.220Z,170.10
2022-10-13T18:56:19.892Z,165.23
2022-10-13T18:58:47.044Z,161.88
2022-10-13T19:01:16.921Z,161.23
2022-10-13T19:03:43.691Z,162.50
2022-10-13T19:06:12.357Z,159.88
2022-10-13T19:08:41.782Z,160.15
2022-10-13T19:11:13.562Z,170.38
2022-10-13T19:13:40.795Z,161.98
2022-10-13T19:16:09.106Z,164.20
2022-10-13T19:18:36.099Z,160.20
2022-10-13T19:21:02.908Z,162.15
2022-10-13T19:23:29.711Z,168.93
2022-10-13T19:25:56.677Z,163.98
2022-10-13T19:28:23.684Z,167.73
2022-10-13T19:30:54.519Z,163.05
2022-10-13T19:33:21.158Z,172.85
2022-10-13T19:35:54.015Z,161.00
2022-10-13T19:38:20.646Z,180.10
2022-10-13T19:40:49.664Z,174.52
2022-10-13T19:43:17.313Z,184.60
2022-10-13T19:45:57.428Z,178.18
2022-10-13T19:48:26.837Z,180.88
2022-10-13T19:50:53.625Z,172.80
2022-10-13T19:53:20.292Z,175.32
2022-10-13T19:55:48.186Z,165.60
2022-10-13T19:58:16.302Z,169.10
2022-10-13T20:00:44.973Z,168.43
2022-10-13T20:03:13.447Z,164.15
2022-10-13T20:05:43.458Z,173.65
2022-10-13T20:08:11.723Z,168.57
2022-10-13T20:10:43.214Z,170.43
2022-10-13T20:13:10.988Z,171.05
2022-10-13T20:15:42.821Z,161.38
2022-10-13T20:18:12.957Z,168.90
2022-10-13T20:20:41.397Z,164.48
2022-10-13T20:23:09.172Z,161.82
2022-10-13T20:25:38.796Z,160.43
2022-10-13T20:28:06.392Z,160.63
2022-10-13T20:30:33.685Z,161.68
2022-10-13T20:33:00.533Z,159.57
2022-10-13T20:35:27.410Z,167.85
2022-10-13T20:37:54.128Z,155.48
2022-10-13T20:40:20.906Z,166.32
2022-10-13T20:42:51.995Z,165.40
2022-10-13T20:45:20.435Z,161.75
2022-10-13T20:47:48.672Z,157.80
2022-10-13T20:50:15.772Z,162.48
2022-10-13T20:52:42.644Z,163.63
2022-10-13T20:55:10.043Z,166.95
2022-10-13T20:57:37.075Z,155.15
2022-10-13T21:00:05.067Z,166.77
2022-10-13T21:02:31.984Z,162.95
2022-10-13T21:04:58.640Z,159.85
2022-10-13T21:07:25.422Z,156.50
2022-10-13T21:09:53.925Z,165.30
2022-10-13T21:12:21.492Z,165.45
2022-10-13T21:14:48.233Z,167.10
2022-10-13T21:17:14.878Z,161.43
2022-10-13T21:19:41.458Z,157.73
2022-10-13T21:22:08.089Z,163.38
2022-10-13T21:24:34.916Z,156.30
2022-10-13T21:27:01.520Z,158.10
2022-10-13T21:29:28.293Z,160.25
2022-10-13T21:31:54.953Z,168.50
2022-10-13T21:34:21.597Z,166.65
2022-10-13T21:36:48.384Z,158.10
2022-10-13T21:39:15.310Z,163.40
2022-10-13T21:41:41.965Z,166.50
2022-10-13T21:44:12.807Z,169.60
2022-10-13T21:46:39.413Z,169.55
2022-10-13T21:49:06.590Z,162.02
2022-10-13T21:51:36.650Z,160.98
2022-10-13T21:54:10.671Z,155.45
2022-10-13T21:56:39.436Z,155.23
2022-10-13T21:59:06.858Z,165.05
2022-10-13T22:01:34.475Z,157.88
2022-10-13T22:04:02.829Z,155.68
2022-10-13T22:06:32.078Z,161.88
2022-10-13T22:09:02.131Z,162.50
2022-10-13T22:11:30.537Z,158.13
2022-10-13T22:13:57.989Z,157.07
2022-10-13T22:16:27.353Z,158.13
2022-10-13T22:18:56.082Z,156.07
2022-10-13T22:21:30.465Z,155.02
2022-10-13T22:24:02.244Z,164.30
2022-10-13T22:26:30.331Z,156.98
2022-10-13T22:28:58.216Z,152.55
2022-10-13T22:31:25.336Z,162.85
2022-10-13T22:33:53.764Z,165.30
2022-10-13T22:36:23.976Z,164.32
2022-10-13T22:38:52.234Z,163.20
2022-10-13T22:41:19.828Z,158.23
2022-10-13T22:43:51.702Z,146.02
2022-10-13T22:46:20.041Z,154.30
2022-10-13T22:48:47.088Z,155.55
2022-10-13T22:51:20.094Z,153.15
2022-10-13T22:53:47.208Z,159.32
2022-10-13T22:56:27.005Z,158.48
2022-10-13T22:58:59.638Z,158.88
2022-10-13T23:01:27.008Z,166.35
2022-10-13T23:03:56.720Z,159.98
2022-10-13T23:06:26.630Z,169.38
2022-10-13T23:08:53.601Z,158.38
2022-10-13T23:11:21.482Z,160.02
2022-10-13T23:13:48.402Z,158.02
2022-10-13T23:16:20.727Z,152.65
2022-10-13T23:18:47.854Z,160.20
2022-10-13T23:21:26.879Z,156.80
2022-10-13T23:23:59.408Z,154.65
2022-10-13T23:26:26.859Z,154.98
2022-10-13T23:28:55.743Z,152.63
2022-10-13T23:31:23.028Z,161.15
2022-10-13T23:33:49.743Z,151.75
2022-10-13T23:36:19.302Z,153.13
2022-10-13T23:38:54.565Z,155.90
2022-10-13T23:41:21.265Z,156.43
2022-10-13T23:43:48.081Z,151.85
2022-10-13T23:46:14.729Z,151.75
2022-10-13T23:48:41.608Z,156.50
2022-10-13T23:51:09.997Z,154.48
2022-10-13T23:53:38.025Z,164.43
2022-10-13T23:56:06.284Z,154.65
2022-10-13T23:58:35.732Z,153.40
